Etusivu
METAR-TAF:

METAR-TAF

Lentoasemat :

Stavangerin lentoasema

Stavanger, Norja

Leveyspiiri: 58-53N, Pituuspiiri: 005-38E, korkeus merenpinnasta: 0 m

Tämänhetkinen sää

Tämä raportti tehtiin 23 minuuttia sitten, kello 17.50 UTC
Tuuli 3 kn etelästä/kaakosta
Lämpötila 4°C
Kosteus 87%
Ilmanpaine 1035 hPa
Näkyvyys 10 km tai enemmän
Hajonneita pilviä 2000 ft:n korkeudessa

METAR: ENZV 191750Z 15003KT 9999 BKN020 04/02 Q1035 NOSIG

Aika: 19:13 (18:13 UTC)

Sääennuste

Ennuste voimassa 19. päivästä klo 18 UTC - 20. päivään klo 18 UTC
Tuuli 5 kn kaakosta
Näkyvyys 10 km tai enemmän
Hajanaisia pilviä 800 ft:n korkeudessa
Ajoittain
19. päivästä klo 18 UTC - 19. päivään klo 22 UTC
Näkyvyys: 1200 m
Hajonneita pilviä 300 ft:n korkeudessa
sumuhattaroita

TAF: ENZV 1918/2018 14005KT 9999 SCT008 TEMPO 1918/1922 1200 BCFG BKN003

Säähavainnot ja -ennusteet yli 4000 lentoasemalta (METAR- ja TAF-raportit).

Käytössä olevat sääasemat on merkitty karttaan keltaisilla ja punaisilla pisteillä.

Aseta hiiri pisteen päälle nähdäksesi sääaseman nimen.

Klikkaa sitten nähdäksesi säähavainnot ja -ennusteet.

Kartan vaihtaminen: klikkaa mustalla rastilla varustettuja vihreitä pisteitä, niin voit zoomata sisään; viivalla varustettua vihreää pistettä, niin voit zoomata ulos tai vihreitä nuolia, niin pääset viereisille kartoille.


METAR-TAF: